Uniontown, Missouri
Current Conditions -  °F | °C
As of 7:05 PM on Sunday 23 Nov 2014 (Local Time) from KCGI Reporting Station
Overcast Overcast  
Wind Chill: 55°   Ceiling: 700
Heat Index: 55°   Visibility: 10mi
Dew Point: 55°   Wind: 9mph
Humidity: 100%   Direction: 210°SSW
Pressure: 29.32"   Gusts: NA
Location:  37.61°N, 89.71°W
Report Text: KCGI 240105Z AUTO 21008KT 10SM BKN007 OVC012 13/13 A2932 RMK AO2 CIG 005V009 T01280128 TSNO
Loading
Personal Weather Stations






























Interactive Weather Map New forecast layout! Learn more

10-Day Weather Forecast

Advertisements
Track Severe Weather on mobile